createdAt,value
2017-11-10T00:00:07.340Z,27.80
2017-11-10T00:01:12.792Z,28.45
2017-11-10T00:02:18.470Z,28.60
2017-11-10T00:03:23.909Z,28.13
2017-11-10T00:04:29.456Z,28.85
2017-11-10T00:05:34.944Z,27.05
2017-11-10T00:06:40.400Z,27.67
2017-11-10T00:07:45.936Z,27.35
2017-11-10T00:08:51.410Z,27.45
2017-11-10T00:09:57.042Z,28.77
2017-11-10T00:11:02.514Z,28.70
2017-11-10T00:12:07.968Z,28.45
2017-11-10T00:13:13.469Z,26.83
2017-11-10T00:14:18.955Z,26.35
2017-11-10T00:15:24.495Z,27.37
2017-11-10T00:16:30.083Z,26.87
2017-11-10T00:17:35.496Z,26.23
2017-11-10T00:18:40.952Z,26.70
2017-11-10T00:19:46.446Z,26.60
2017-11-10T00:20:51.886Z,26.90
2017-11-10T00:21:57.354Z,25.90
2017-11-10T00:23:02.855Z,27.20
2017-11-10T00:24:08.411Z,24.80
2017-11-10T00:25:13.978Z,25.02
2017-11-10T00:26:19.477Z,25.30
2017-11-10T00:27:24.968Z,27.20
2017-11-10T00:28:30.436Z,25.67
2017-11-10T00:29:35.877Z,24.15
2017-11-10T00:30:41.371Z,24.25
2017-11-10T00:31:46.822Z,25.80
2017-11-10T00:32:52.586Z,24.90
2017-11-10T00:33:58.140Z,23.58
2017-11-10T00:35:03.727Z,24.23
2017-11-10T00:36:09.194Z,24.90
2017-11-10T00:37:14.640Z,24.65
2017-11-10T00:38:20.072Z,25.25
2017-11-10T00:39:25.826Z,24.70
2017-11-10T00:40:31.313Z,26.60
2017-11-10T00:41:36.814Z,25.08
2017-11-10T00:42:42.272Z,24.60
2017-11-10T00:43:47.701Z,24.02
2017-11-10T00:44:53.193Z,23.15
2017-11-10T00:45:58.610Z,25.50
2017-11-10T00:47:04.121Z,24.98
2017-11-10T00:48:09.682Z,26.02
2017-11-10T00:49:15.144Z,24.63
2017-11-10T00:50:20.677Z,24.73
2017-11-10T00:51:26.202Z,24.35
2017-11-10T00:52:31.890Z,24.17
2017-11-10T00:53:37.389Z,24.95
2017-11-10T00:54:43.018Z,24.00
2017-11-10T00:55:48.413Z,24.50
2017-11-10T00:56:54.155Z,23.25
2017-11-10T00:57:59.585Z,23.90
2017-11-10T00:59:04.958Z,26.20
2017-11-10T01:00:10.438Z,24.95
2017-11-10T01:01:15.874Z,25.17
2017-11-10T01:02:21.581Z,25.48
2017-11-10T01:03:28.325Z,25.12
2017-11-10T01:04:33.786Z,24.83
2017-11-10T01:05:39.222Z,26.02
2017-11-10T01:06:44.672Z,24.87
2017-11-10T01:07:50.134Z,23.85
2017-11-10T01:08:56.055Z,24.98
2017-11-10T01:10:01.562Z,23.77
2017-11-10T01:11:07.169Z,24.87
2017-11-10T01:12:13.430Z,23.55
2017-11-10T01:13:18.871Z,23.83
2017-11-10T01:14:24.296Z,24.10
2017-11-10T01:15:30.013Z,25.60
2017-11-10T01:16:35.488Z,26.23
2017-11-10T01:17:40.908Z,23.20
2017-11-10T01:18:46.407Z,25.60
2017-11-10T01:19:51.893Z,24.58
2017-11-10T01:20:58.008Z,26.00
2017-11-10T01:22:03.479Z,23.90
2017-11-10T01:23:08.993Z,25.27
2017-11-10T01:24:14.425Z,27.42
2017-11-10T01:25:19.949Z,26.60
2017-11-10T01:26:28.230Z,26.40
2017-11-10T01:27:35.694Z,25.27
2017-11-10T01:28:41.628Z,24.50
2017-11-10T01:29:47.330Z,25.43
2017-11-10T01:30:53.090Z,25.33
2017-11-10T01:31:58.663Z,26.62
2017-11-10T01:33:04.982Z,25.98
2017-11-10T01:34:10.679Z,25.85
2017-11-10T01:35:16.542Z,26.60
2017-11-10T01:36:22.777Z,25.52
2017-11-10T01:37:28.249Z,25.33
2017-11-10T01:38:33.705Z,24.35
2017-11-10T01:39:39.153Z,23.10
2017-11-10T01:40:44.610Z,22.80
2017-11-10T01:41:50.039Z,24.60
2017-11-10T01:42:55.487Z,23.77
2017-11-10T01:44:01.005Z,25.08
2017-11-10T01:45:06.477Z,24.00
2017-11-10T01:46:11.941Z,23.55
2017-11-10T01:47:17.378Z,23.73
2017-11-10T01:48:23.073Z,25.12
2017-11-10T01:49:28.606Z,23.17
2017-11-10T01:50:34.451Z,21.98
2017-11-10T01:51:40.057Z,23.77
2017-11-10T01:52:45.481Z,22.77
2017-11-10T01:53:51.031Z,23.23
2017-11-10T01:54:56.494Z,24.30
2017-11-10T01:56:02.286Z,25.08
2017-11-10T01:57:07.860Z,24.90
2017-11-10T01:58:13.623Z,24.92
2017-11-10T01:59:19.191Z,23.80
2017-11-10T02:00:24.735Z,25.70
2017-11-10T02:01:30.592Z,24.10
2017-11-10T02:02:36.099Z,23.12
2017-11-10T02:03:41.530Z,25.52
2017-11-10T02:04:47.314Z,23.92
2017-11-10T02:05:52.757Z,24.15
2017-11-10T02:07:00.066Z,24.95
2017-11-10T02:08:05.614Z,24.12
2017-11-10T02:09:11.062Z,25.23
2017-11-10T02:10:16.566Z,25.55
2017-11-10T02:11:22.004Z,24.90
2017-11-10T02:12:27.812Z,26.15
2017-11-10T02:13:33.218Z,25.35
2017-11-10T02:14:38.703Z,25.27
2017-11-10T02:15:44.400Z,24.65
2017-11-10T02:16:50.089Z,24.70
2017-11-10T02:17:55.703Z,24.08
2017-11-10T02:19:01.154Z,24.70
2017-11-10T02:20:06.696Z,24.50
2017-11-10T02:21:12.327Z,22.90
2017-11-10T02:22:17.825Z,23.20
2017-11-10T02:23:23.267Z,22.20
2017-11-10T02:24:28.713Z,23.85
2017-11-10T02:25:34.227Z,23.80
2017-11-10T02:26:39.670Z,23.95
2017-11-10T02:27:45.166Z,22.60
2017-11-10T02:28:50.809Z,21.95
2017-11-10T02:29:56.310Z,22.27
2017-11-10T02:31:02.241Z,21.58
2017-11-10T02:32:07.717Z,20.52
2017-11-10T02:33:13.241Z,20.27
2017-11-10T02:34:18.904Z,19.87
2017-11-10T02:35:24.657Z,20.70
2017-11-10T02:36:30.360Z,19.67
2017-11-10T02:37:36.180Z,19.50
2017-11-10T02:38:41.910Z,19.75
2017-11-10T02:39:47.453Z,18.80
2017-11-10T02:40:53.073Z,19.50
2017-11-10T02:41:58.569Z,17.90
2017-11-10T02:43:04.296Z,17.00
2017-11-10T02:44:10.446Z,16.92
2017-11-10T02:45:15.969Z,17.48
2017-11-10T02:46:21.484Z,16.75
2017-11-10T02:47:27.004Z,16.55
2017-11-10T02:48:33.114Z,17.25
2017-11-10T02:49:38.523Z,17.55
2017-11-10T02:50:43.984Z,17.12
2017-11-10T02:51:49.843Z,17.02
2017-11-10T02:52:55.447Z,16.40
2017-11-10T02:54:00.965Z,17.20
2017-11-10T02:55:06.431Z,16.52
2017-11-10T02:56:12.136Z,16.50
2017-11-10T02:57:17.834Z,16.93
2017-11-10T02:58:23.352Z,17.10
2017-11-10T02:59:28.842Z,17.47
2017-11-10T03:00:34.298Z,17.17
2017-11-10T03:01:39.804Z,18.20
2017-11-10T03:02:46.494Z,18.75
2017-11-10T03:03:52.002Z,17.83
2017-11-10T03:04:57.439Z,19.70
2017-11-10T03:06:02.880Z,18.80
2017-11-10T03:07:08.301Z,18.83
2017-11-10T03:08:13.767Z,19.40
2017-11-10T03:09:19.248Z,19.42
2017-11-10T03:10:24.714Z,19.35
2017-11-10T03:11:30.375Z,19.25
2017-11-10T03:12:36.316Z,18.90
2017-11-10T03:13:42.021Z,18.75
2017-11-10T03:14:47.849Z,17.13
2017-11-10T03:15:53.357Z,18.58
2017-11-10T03:16:58.808Z,18.00
2017-11-10T03:18:04.213Z,17.45
2017-11-10T03:19:10.040Z,20.42
2017-11-10T03:20:15.492Z,17.95
2017-11-10T03:21:20.923Z,18.17
2017-11-10T03:22:26.688Z,16.77
2017-11-10T03:23:32.113Z,17.95
2017-11-10T03:24:37.624Z,17.57
2017-11-10T03:25:43.323Z,17.17
2017-11-10T03:26:48.931Z,16.87
2017-11-10T03:27:54.559Z,16.85
2017-11-10T03:28:59.989Z,16.47
2017-11-10T03:30:05.531Z,17.02
2017-11-10T03:31:11.024Z,16.62
2017-11-10T03:32:16.712Z,17.05
2017-11-10T03:33:22.160Z,17.27
2017-11-10T03:34:27.586Z,15.80
2017-11-10T03:35:33.123Z,17.60
2017-11-10T03:36:38.823Z,16.60
2017-11-10T03:37:44.285Z,16.20
2017-11-10T03:38:49.882Z,17.50
2017-11-10T03:39:55.288Z,44.10
2017-11-10T03:41:01.034Z,30.42
2017-11-10T03:42:06.492Z,21.27
2017-11-10T03:43:11.930Z,17.48
2017-11-10T03:44:17.404Z,17.30
2017-11-10T03:45:22.953Z,16.70
2017-11-10T03:46:28.991Z,16.08
2017-11-10T03:47:34.470Z,17.50
2017-11-10T03:48:40.145Z,17.70
2017-11-10T03:49:45.693Z,17.45
2017-11-10T03:50:51.484Z,17.00
2017-11-10T03:51:57.194Z,15.93
2017-11-10T03:53:02.701Z,17.07
2017-11-10T03:54:08.219Z,17.10
2017-11-10T03:55:13.667Z,17.95
2017-11-10T03:56:19.139Z,17.80
2017-11-10T03:57:24.653Z,17.10
2017-11-10T03:58:30.173Z,16.42
2017-11-10T03:59:35.765Z,16.12
2017-11-10T04:00:41.201Z,18.05
2017-11-10T04:01:47.156Z,16.95
2017-11-10T04:02:52.767Z,16.85
2017-11-10T04:03:58.305Z,16.00
2017-11-10T04:05:03.756Z,16.67
2017-11-10T04:06:09.218Z,17.25
2017-11-10T04:07:14.666Z,15.73
2017-11-10T04:08:20.387Z,15.85
2017-11-10T04:09:25.920Z,18.92
2017-11-10T04:10:31.360Z,57.03
2017-11-10T04:11:37.004Z,46.22
2017-11-10T04:12:42.454Z,47.05
2017-11-10T04:13:48.044Z,24.73
2017-11-10T04:14:53.480Z,20.55
2017-11-10T04:15:58.937Z,22.08
2017-11-10T04:17:04.409Z,15.45
2017-11-10T04:18:09.833Z,14.05
2017-11-10T04:19:15.316Z,16.15
2017-11-10T04:20:20.771Z,19.25
2017-11-10T04:21:26.397Z,14.80
2017-11-10T04:22:31.944Z,13.80
2017-11-10T04:23:37.360Z,13.30
2017-11-10T04:24:43.059Z,13.73
2017-11-10T04:25:48.521Z,12.60
2017-11-10T04:26:53.961Z,14.20
2017-11-10T04:27:59.364Z,14.83
2017-11-10T04:29:04.812Z,13.77
2017-11-10T04:30:10.221Z,10.90
2017-11-10T04:31:15.658Z,9.43
2017-11-10T04:32:21.080Z,10.50
2017-11-10T04:33:26.818Z,10.18
2017-11-10T04:34:32.319Z,9.65
2017-11-10T04:35:37.876Z,9.68
2017-11-10T04:36:43.763Z,9.90
2017-11-10T04:37:49.186Z,10.70
2017-11-10T04:38:54.964Z,9.80
2017-11-10T04:40:00.410Z,8.52
2017-11-10T04:41:05.886Z,8.60
2017-11-10T04:42:11.477Z,8.40
2017-11-10T04:43:17.036Z,7.90
2017-11-10T04:44:22.844Z,8.88
2017-11-10T04:45:28.288Z,9.10
2017-11-10T04:46:33.699Z,9.55
2017-11-10T04:47:39.173Z,8.93
2017-11-10T04:48:44.752Z,7.93
2017-11-10T04:49:50.241Z,7.87
2017-11-10T04:50:55.720Z,7.80
2017-11-10T04:52:01.200Z,9.10
2017-11-10T04:53:06.673Z,8.75
2017-11-10T04:54:12.468Z,8.43
2017-11-10T04:55:17.914Z,8.65
2017-11-10T04:56:23.409Z,8.32
2017-11-10T04:57:28.846Z,7.70
2017-11-10T04:58:34.297Z,8.75
2017-11-10T04:59:39.882Z,8.68
2017-11-10T05:00:46.345Z,6.72
2017-11-10T05:01:51.858Z,7.35
2017-11-10T05:02:57.486Z,7.82
2017-11-10T05:04:02.978Z,7.10
2017-11-10T05:05:08.496Z,7.43
2017-11-10T05:06:13.999Z,6.93
2017-11-10T05:07:19.479Z,6.70
2017-11-10T05:08:24.968Z,5.78
2017-11-10T05:09:30.434Z,5.75
2017-11-10T05:10:36.269Z,6.43
2017-11-10T05:11:41.698Z,5.75
2017-11-10T05:12:47.334Z,5.50
2017-11-10T05:13:53.148Z,5.20
2017-11-10T05:14:58.689Z,5.68
2017-11-10T05:16:04.201Z,5.30
2017-11-10T05:17:09.642Z,5.97
2017-11-10T05:18:15.045Z,5.62
2017-11-10T05:19:20.473Z,8.57
2017-11-10T05:20:26.037Z,8.48
2017-11-10T05:21:31.447Z,10.15
2017-11-10T05:22:36.904Z,11.88
2017-11-10T05:23:42.377Z,10.00
2017-11-10T05:24:47.881Z,7.03
2017-11-10T05:25:53.440Z,6.72
2017-11-10T05:26:58.980Z,6.50
2017-11-10T05:28:04.824Z,6.45
2017-11-10T05:29:10.342Z,6.75
2017-11-10T05:30:16.245Z,7.60
2017-11-10T05:31:22.343Z,6.90
2017-11-10T05:32:28.128Z,7.73
2017-11-10T05:33:33.967Z,7.72
2017-11-10T05:34:39.490Z,7.55
2017-11-10T05:35:45.267Z,7.30
2017-11-10T05:36:51.034Z,8.00
2017-11-10T05:37:56.819Z,7.40
2017-11-10T05:39:02.556Z,7.30
2017-11-10T05:40:08.475Z,8.00
2017-11-10T05:41:14.463Z,6.90
2017-11-10T05:42:20.207Z,11.00
2017-11-10T05:43:26.055Z,10.27
2017-11-10T05:44:31.759Z,18.62
2017-11-10T05:45:37.374Z,9.20
2017-11-10T05:46:42.987Z,7.50
2017-11-10T05:47:48.495Z,7.95
2017-11-10T05:48:53.971Z,7.60
2017-11-10T05:49:59.511Z,7.15
2017-11-10T05:51:04.998Z,8.20
2017-11-10T05:52:10.724Z,8.38
2017-11-10T05:53:16.225Z,8.23
2017-11-10T05:54:21.819Z,9.13
2017-11-10T05:55:27.447Z,9.15
2017-11-10T05:56:33.001Z,9.18
2017-11-10T05:57:40.969Z,9.30
2017-11-10T05:58:46.692Z,8.80
2017-11-10T05:59:52.706Z,8.40
2017-11-10T06:00:59.718Z,8.60
2017-11-10T06:02:05.990Z,8.90
2017-11-10T06:03:11.724Z,22.45
2017-11-10T06:04:17.259Z,24.60
2017-11-10T06:05:22.760Z,13.23
2017-11-10T06:06:28.293Z,8.70
2017-11-10T06:07:34.082Z,7.30
2017-11-10T06:08:39.570Z,7.30
2017-11-10T06:09:45.026Z,6.60
2017-11-10T06:10:50.497Z,6.18
2017-11-10T06:11:56.031Z,5.68
2017-11-10T06:13:01.605Z,7.63
2017-11-10T06:14:07.417Z,5.82
2017-11-10T06:15:13.070Z,5.22
2017-11-10T06:16:18.534Z,5.20
2017-11-10T06:17:23.962Z,5.10
2017-11-10T06:18:29.398Z,5.30
2017-11-10T06:19:35.325Z,5.43
2017-11-10T06:20:40.818Z,5.35
2017-11-10T06:23:04.232Z,5.55
2017-11-10T06:24:09.929Z,5.12
2017-11-10T06:25:15.381Z,5.60
2017-11-10T06:26:21.144Z,5.40
2017-11-10T06:27:26.700Z,5.32
2017-11-10T06:28:32.133Z,5.62
2017-11-10T06:29:37.603Z,5.93
2017-11-10T06:30:43.084Z,5.85
2017-11-10T06:31:48.978Z,6.78
2017-11-10T06:32:54.552Z,6.32
2017-11-10T06:34:00.034Z,6.00
2017-11-10T06:35:05.643Z,6.20
2017-11-10T06:36:11.210Z,7.68
2017-11-10T06:37:16.951Z,7.57
2017-11-10T06:38:24.331Z,7.50
2017-11-10T06:39:29.793Z,8.13
2017-11-10T06:40:35.536Z,7.50
2017-11-10T06:41:41.146Z,7.40
2017-11-10T06:42:46.921Z,7.95
2017-11-10T06:43:52.446Z,7.12
2017-11-10T06:44:57.921Z,9.30
2017-11-10T06:46:03.465Z,30.80
2017-11-10T06:47:09.065Z,15.02
2017-11-10T06:48:14.992Z,9.73
2017-11-10T06:49:20.477Z,11.02
2017-11-10T06:50:26.008Z,10.98
2017-11-10T06:51:31.454Z,8.20
2017-11-10T06:52:36.923Z,8.55
2017-11-10T06:53:42.325Z,8.13
2017-11-10T06:54:48.070Z,7.97
2017-11-10T06:55:53.509Z,8.20
2017-11-10T06:56:58.974Z,7.50
2017-11-10T06:58:04.575Z,8.65
2017-11-10T06:59:10.138Z,7.72
2017-11-10T07:00:16.333Z,8.27
2017-11-10T07:01:21.760Z,8.25
2017-11-10T07:02:27.207Z,8.30
2017-11-10T07:03:32.667Z,8.25
2017-11-10T07:04:38.131Z,8.48
2017-11-10T07:05:43.542Z,8.80
2017-11-10T07:06:48.978Z,9.27
2017-11-10T07:07:54.477Z,8.98
2017-11-10T07:08:59.943Z,8.50
2017-11-10T07:10:05.546Z,10.98
2017-11-10T07:11:11.274Z,20.23
2017-11-10T07:12:16.717Z,11.63
2017-11-10T07:13:22.147Z,9.50
2017-11-10T07:14:27.593Z,9.93
2017-11-10T07:15:33.129Z,9.52
2017-11-10T07:16:38.567Z,9.75
2017-11-10T07:17:44.039Z,9.23
2017-11-10T07:18:49.495Z,9.43
2017-11-10T07:19:55.207Z,9.15
2017-11-10T07:21:00.693Z,8.30
2017-11-10T07:22:06.179Z,9.18
2017-11-10T07:23:11.625Z,8.60
2017-11-10T07:24:17.378Z,8.98
2017-11-10T07:25:22.901Z,8.00
2017-11-10T07:26:28.466Z,8.10
2017-11-10T07:27:33.918Z,8.25
2017-11-10T07:28:39.397Z,7.70
2017-11-10T07:29:44.863Z,7.60
2017-11-10T07:30:50.277Z,7.95
2017-11-10T07:31:55.878Z,7.90
2017-11-10T07:33:01.341Z,7.47
2017-11-10T07:34:07.022Z,6.85
2017-11-10T07:35:12.518Z,8.25
2017-11-10T07:36:18.173Z,7.90
2017-11-10T07:37:23.649Z,7.62
2017-11-10T07:38:29.240Z,7.47
2017-11-10T07:39:35.098Z,7.40
2017-11-10T07:40:40.614Z,7.50
2017-11-10T07:41:46.070Z,7.03
2017-11-10T07:42:51.730Z,7.68
2017-11-10T07:43:57.564Z,6.87
2017-11-10T07:45:03.098Z,7.97
2017-11-10T07:46:08.577Z,7.65
2017-11-10T07:47:14.027Z,7.60
2017-11-10T07:48:19.450Z,6.50
2017-11-10T07:49:24.838Z,6.90
2017-11-10T07:50:30.728Z,7.20
2017-11-10T07:51:36.175Z,6.82
2017-11-10T07:52:41.614Z,7.45
2017-11-10T07:53:47.005Z,7.65
2017-11-10T07:54:52.494Z,7.35
2017-11-10T07:55:58.004Z,7.80
2017-11-10T07:57:03.528Z,7.30
2017-11-10T07:58:09.002Z,7.78
2017-11-10T07:59:14.486Z,8.43
2017-11-10T08:00:20.458Z,7.93
2017-11-10T08:01:25.908Z,7.70
2017-11-10T08:02:31.542Z,7.37
2017-11-10T08:03:37.009Z,7.45
2017-11-10T08:04:42.550Z,8.60
2017-11-10T08:05:48.172Z,8.30
2017-11-10T08:06:53.587Z,7.95
2017-11-10T08:07:59.031Z,8.45
2017-11-10T08:09:04.946Z,8.10
2017-11-10T08:10:10.547Z,8.05
2017-11-10T08:11:15.994Z,7.93
2017-11-10T08:12:21.426Z,8.00
2017-11-10T08:13:27.956Z,8.85
2017-11-10T08:14:33.389Z,8.07
2017-11-10T08:15:38.918Z,9.33
2017-11-10T08:16:44.388Z,8.20
2017-11-10T08:17:49.828Z,7.95
2017-11-10T08:18:55.675Z,8.07
2017-11-10T08:20:01.130Z,8.00
2017-11-10T08:21:06.616Z,7.60
2017-11-10T08:22:12.122Z,8.90
2017-11-10T08:23:17.588Z,8.50
2017-11-10T08:24:23.264Z,8.00
2017-11-10T08:25:28.857Z,8.85
2017-11-10T08:26:34.403Z,8.30
2017-11-10T08:27:39.880Z,7.43
2017-11-10T08:28:45.354Z,7.03
2017-11-10T08:29:51.116Z,7.75
2017-11-10T08:30:56.579Z,15.32
2017-11-10T08:32:02.118Z,13.10
2017-11-10T08:33:07.838Z,9.00
2017-11-10T08:34:16.056Z,8.70
2017-11-10T08:35:21.546Z,7.90
2017-11-10T08:36:27.000Z,7.78
2017-11-10T08:37:32.451Z,8.10
2017-11-10T08:38:38.018Z,7.60
2017-11-10T08:39:43.459Z,7.00
2017-11-10T08:40:49.217Z,7.53
2017-11-10T08:41:54.667Z,8.38
2017-11-10T08:43:00.192Z,7.60
2017-11-10T08:44:05.758Z,31.33
2017-11-10T08:45:11.238Z,17.20
2017-11-10T08:46:16.678Z,9.98
2017-11-10T08:47:22.152Z,8.70
2017-11-10T08:48:27.598Z,8.38
2017-11-10T08:49:33.098Z,8.17
2017-11-10T08:50:38.609Z,8.13
2017-11-10T08:51:44.060Z,7.93
2017-11-10T08:52:49.527Z,8.27
2017-11-10T08:53:54.994Z,8.50
2017-11-10T08:55:00.493Z,8.80
2017-11-10T08:56:06.006Z,8.50
2017-11-10T08:57:11.772Z,8.52
2017-11-10T08:58:17.183Z,8.55
2017-11-10T08:59:22.640Z,9.15
2017-11-10T09:00:28.279Z,9.20
2017-11-10T09:01:33.770Z,9.02
2017-11-10T09:02:39.235Z,8.93
2017-11-10T09:03:44.735Z,8.60
2017-11-10T09:04:50.349Z,8.48
2017-11-10T09:05:55.845Z,8.88
2017-11-10T09:07:01.349Z,7.65
2017-11-10T09:08:06.879Z,8.00
2017-11-10T09:09:12.421Z,7.50
2017-11-10T09:10:17.980Z,8.40
2017-11-10T09:11:23.417Z,7.80
2017-11-10T09:12:29.261Z,7.72
2017-11-10T09:13:34.694Z,7.80
2017-11-10T09:14:40.475Z,7.87
2017-11-10T09:15:45.984Z,8.20
2017-11-10T09:16:51.621Z,8.02
2017-11-10T09:17:57.147Z,8.57
2017-11-10T09:19:02.843Z,8.30
2017-11-10T09:20:08.999Z,7.40
2017-11-10T09:21:14.527Z,7.90
2017-11-10T09:22:20.075Z,7.32
2017-11-10T09:23:25.657Z,7.22
2017-11-10T09:24:31.499Z,6.40
2017-11-10T09:25:37.125Z,7.00
2017-11-10T09:26:42.781Z,6.25
2017-11-10T09:27:48.437Z,6.10
2017-11-10T09:28:54.102Z,6.85
2017-11-10T09:29:59.751Z,6.62
2017-11-10T09:31:05.475Z,17.67
2017-11-10T09:32:11.241Z,14.57
2017-11-10T09:33:16.838Z,7.25
2017-11-10T09:34:22.458Z,5.55
2017-11-10T09:35:28.453Z,5.20
2017-11-10T09:36:34.433Z,5.68
2017-11-10T09:37:40.040Z,5.70
2017-11-10T09:38:45.635Z,6.53
2017-11-10T09:39:51.213Z,14.23
2017-11-10T09:40:57.193Z,9.70
2017-11-10T09:42:02.839Z,7.03
2017-11-10T09:43:08.456Z,5.43
2017-11-10T09:44:14.400Z,5.60
2017-11-10T09:45:19.970Z,5.47
2017-11-10T09:46:25.876Z,4.75
2017-11-10T09:47:35.640Z,5.57
2017-11-10T09:48:45.405Z,4.90
2017-11-10T09:49:55.094Z,4.95
2017-11-10T09:51:05.228Z,4.80
2017-11-10T09:52:11.050Z,3.90
2017-11-10T09:53:16.823Z,3.90
2017-11-10T09:54:22.626Z,4.10
2017-11-10T09:55:28.675Z,3.45
2017-11-10T09:56:34.506Z,16.60
2017-11-10T09:57:40.379Z,6.47
2017-11-10T09:58:46.138Z,3.92
2017-11-10T09:59:52.346Z,2.95
2017-11-10T10:01:00.441Z,2.60
2017-11-10T10:02:06.088Z,3.00
2017-11-10T10:03:11.758Z,3.22
2017-11-10T10:04:17.418Z,3.00
2017-11-10T10:05:23.004Z,3.30
2017-11-10T10:06:29.557Z,3.30
2017-11-10T10:07:38.310Z,2.83
2017-11-10T10:08:44.309Z,3.55
2017-11-10T10:09:50.088Z,2.70
2017-11-10T10:10:55.693Z,3.00
2017-11-10T10:12:01.381Z,2.90
2017-11-10T10:13:06.950Z,3.00
2017-11-10T10:14:12.689Z,3.20
2017-11-10T10:15:18.284Z,3.00
2017-11-10T10:16:24.051Z,2.95
2017-11-10T10:17:29.582Z,2.30
2017-11-10T10:18:35.232Z,2.50
2017-11-10T10:19:40.827Z,2.58
2017-11-10T10:20:46.399Z,2.80
2017-11-10T10:21:52.046Z,3.10
2017-11-10T10:22:57.632Z,3.60
2017-11-10T10:24:03.211Z,3.33
2017-11-10T10:25:08.783Z,2.62
2017-11-10T10:26:14.789Z,3.22
2017-11-10T10:27:20.337Z,2.70
2017-11-10T10:28:25.872Z,3.10
2017-11-10T10:29:31.530Z,3.25
2017-11-10T10:30:37.010Z,3.67
2017-11-10T10:31:42.658Z,3.53
2017-11-10T10:32:48.185Z,3.00
2017-11-10T10:33:54.395Z,4.63
2017-11-10T10:35:18.208Z,6.93
2017-11-10T10:36:23.732Z,3.50
2017-11-10T10:37:29.302Z,3.70
2017-11-10T10:38:34.874Z,4.30
2017-11-10T10:39:40.402Z,3.47
2017-11-10T10:40:45.952Z,3.40
2017-11-10T10:41:51.570Z,3.87
2017-11-10T10:42:57.042Z,8.38
2017-11-10T10:44:02.509Z,10.23
2017-11-10T10:45:08.319Z,5.67
2017-11-10T10:46:13.811Z,4.80
2017-11-10T10:47:19.644Z,4.80
2017-11-10T10:48:25.136Z,4.45
2017-11-10T10:49:30.681Z,4.37
2017-11-10T10:50:36.118Z,4.30
2017-11-10T10:51:41.781Z,4.60
2017-11-10T10:52:47.340Z,4.28
2017-11-10T10:53:53.130Z,4.70
2017-11-10T10:54:58.738Z,4.03
2017-11-10T10:56:04.277Z,3.95
2017-11-10T10:57:09.952Z,4.37
2017-11-10T10:58:15.429Z,4.47
2017-11-10T10:59:20.973Z,5.15
2017-11-10T11:00:26.433Z,5.35
2017-11-10T11:01:32.215Z,4.62
2017-11-10T11:02:37.731Z,4.40
2017-11-10T11:03:43.238Z,5.10
2017-11-10T11:04:48.729Z,5.18
2017-11-10T11:06:56.700Z,4.72
2017-11-10T11:08:02.232Z,4.60
2017-11-10T11:09:07.733Z,4.55
2017-11-10T11:10:13.315Z,4.30
2017-11-10T11:11:18.998Z,4.60
2017-11-10T11:12:24.583Z,4.82
2017-11-10T11:13:30.485Z,4.90
2017-11-10T11:14:35.990Z,4.32
2017-11-10T11:15:41.563Z,38.83
2017-11-10T11:16:47.108Z,8.82
2017-11-10T11:17:52.611Z,6.03
2017-11-10T11:18:58.083Z,5.37
2017-11-10T11:20:03.607Z,5.72
2017-11-10T11:21:09.226Z,5.85
2017-11-10T11:22:14.723Z,7.25
2017-11-10T11:23:20.280Z,6.22
2017-11-10T11:24:25.852Z,6.37
2017-11-10T11:25:31.385Z,5.78
2017-11-10T11:26:36.850Z,5.47
2017-11-10T11:27:42.338Z,5.35
2017-11-10T11:28:47.897Z,5.30
2017-11-10T11:29:53.399Z,4.60
2017-11-10T11:30:58.904Z,5.00
2017-11-10T11:32:04.632Z,7.20
2017-11-10T11:33:10.139Z,8.20
2017-11-10T11:34:15.583Z,11.65
2017-11-10T11:35:21.089Z,12.50
2017-11-10T11:36:26.534Z,8.20
2017-11-10T11:37:32.019Z,10.20
2017-11-10T11:38:37.538Z,11.00
2017-11-10T11:39:43.148Z,10.23
2017-11-10T11:40:48.897Z,7.10
2017-11-10T11:41:54.500Z,7.53
2017-11-10T11:43:00.305Z,7.33
2017-11-10T11:44:05.839Z,6.68
2017-11-10T11:45:11.359Z,7.75
2017-11-10T11:46:16.804Z,6.12
2017-11-10T11:47:22.327Z,5.90
2017-11-10T11:48:28.186Z,5.40
2017-11-10T11:49:33.657Z,6.00
2017-11-10T11:50:39.221Z,4.70
2017-11-10T11:51:44.885Z,5.03
2017-11-10T11:52:50.505Z,6.22
2017-11-10T11:53:56.013Z,5.62
2017-11-10T11:55:01.686Z,5.72
2017-11-10T11:56:07.246Z,5.80
2017-11-10T11:57:12.754Z,4.93
2017-11-10T11:58:18.235Z,6.22
2017-11-10T11:59:23.750Z,5.85
2017-11-10T12:00:37.328Z,5.40
2017-11-10T12:01:42.819Z,5.75
2017-11-10T12:02:48.346Z,7.53
2017-11-10T12:03:53.873Z,10.65
2017-11-10T12:04:59.515Z,7.40
2017-11-10T12:06:05.030Z,6.45
2017-11-10T12:07:10.932Z,6.37
2017-11-10T12:08:16.445Z,5.80
2017-11-10T12:09:21.937Z,6.10
2017-11-10T12:10:27.575Z,6.00
2017-11-10T12:11:33.074Z,5.75
2017-11-10T12:12:38.570Z,5.07
2017-11-10T12:13:44.089Z,6.05
2017-11-10T12:14:49.595Z,6.00
2017-11-10T12:15:55.327Z,6.57
2017-11-10T12:17:00.813Z,7.05
2017-11-10T12:18:06.373Z,19.02
2017-11-10T12:19:11.885Z,8.82
2017-11-10T12:20:18.061Z,10.38
2017-11-10T12:21:23.815Z,7.43
2017-11-10T12:22:29.440Z,6.45
2017-11-10T12:23:35.045Z,5.95
2017-11-10T12:24:40.622Z,6.43
2017-11-10T12:25:46.175Z,7.32
2017-11-10T12:26:51.689Z,6.45
2017-11-10T12:27:57.281Z,6.20
2017-11-10T12:29:02.847Z,6.30
2017-11-10T12:30:08.493Z,5.70
2017-11-10T12:31:14.096Z,6.07
2017-11-10T12:32:19.898Z,6.03
2017-11-10T12:33:25.427Z,6.50
2017-11-10T12:34:31.042Z,5.60
2017-11-10T12:35:36.548Z,5.70
2017-11-10T12:36:42.140Z,5.30
2017-11-10T12:37:47.740Z,5.40
2017-11-10T12:38:53.262Z,5.00
2017-11-10T12:39:58.788Z,5.28
2017-11-10T12:41:04.300Z,5.40
2017-11-10T12:42:10.068Z,5.03
2017-11-10T12:43:15.946Z,5.30
2017-11-10T12:44:21.429Z,4.60
2017-11-10T12:45:26.960Z,5.05
2017-11-10T12:46:32.413Z,4.90
2017-11-10T12:47:37.968Z,5.15
2017-11-10T12:48:43.908Z,4.27
2017-11-10T12:49:49.397Z,4.70
2017-11-10T12:50:54.904Z,5.57
2017-11-10T12:52:00.400Z,4.93
2017-11-10T12:53:06.197Z,4.75
2017-11-10T12:54:11.775Z,4.03
2017-11-10T12:55:17.256Z,4.30
2017-11-10T12:56:22.836Z,4.22
2017-11-10T12:57:28.349Z,3.85
2017-11-10T12:58:33.878Z,4.20
2017-11-10T12:59:39.517Z,4.40
2017-11-10T13:00:45.016Z,4.55
2017-11-10T13:01:50.668Z,4.10
2017-11-10T13:02:56.169Z,4.00
2017-11-10T13:04:01.881Z,3.95
2017-11-10T13:05:07.470Z,3.90
2017-11-10T13:06:13.244Z,4.60
2017-11-10T13:07:18.942Z,4.30
2017-11-10T13:08:24.364Z,4.50
2017-11-10T13:09:30.048Z,4.47
2017-11-10T13:10:35.618Z,4.90
2017-11-10T13:11:41.344Z,4.43
2017-11-10T13:12:47.335Z,4.32
2017-11-10T13:13:53.001Z,4.20
2017-11-10T13:14:58.662Z,5.03
2017-11-10T13:16:05.144Z,5.12
2017-11-10T13:17:12.432Z,5.12
2017-11-10T13:18:18.134Z,4.50
2017-11-10T13:19:24.197Z,3.80
2017-11-10T13:20:29.804Z,4.70
2017-11-10T13:21:35.290Z,101.18
2017-11-10T13:22:41.073Z,11.40
2017-11-10T13:23:48.060Z,5.05
2017-11-10T13:24:53.651Z,4.90
2017-11-10T13:25:59.634Z,12.50
2017-11-10T13:27:05.280Z,6.20
2017-11-10T13:28:10.844Z,5.37
2017-11-10T13:29:17.339Z,5.60
2017-11-10T13:30:23.034Z,6.90
2017-11-10T13:31:29.115Z,5.22
2017-11-10T13:32:35.402Z,5.03
2017-11-10T13:33:40.972Z,4.47
2017-11-10T13:34:47.095Z,5.32
2017-11-10T13:35:53.265Z,5.30
2017-11-10T13:36:59.124Z,5.72
2017-11-10T13:38:04.688Z,5.47
2017-11-10T13:39:10.159Z,5.30
2017-11-10T13:40:15.901Z,5.60
2017-11-10T13:41:21.477Z,5.75
2017-11-10T13:42:27.141Z,5.25
2017-11-10T13:43:32.671Z,5.45
2017-11-10T13:44:38.262Z,5.20
2017-11-10T13:45:43.783Z,5.75
2017-11-10T13:46:49.290Z,6.03
2017-11-10T13:47:54.837Z,5.75
2017-11-10T13:49:00.441Z,5.40
2017-11-10T13:50:06.023Z,5.90
2017-11-10T13:51:11.666Z,5.30
2017-11-10T13:52:17.333Z,5.53
2017-11-10T13:53:22.880Z,6.03
2017-11-10T13:54:28.422Z,5.50
2017-11-10T13:55:33.955Z,5.80
2017-11-10T13:56:39.507Z,6.50
2017-11-10T13:57:45.036Z,8.57
2017-11-10T13:58:50.827Z,6.05
2017-11-10T13:59:56.545Z,6.22
2017-11-10T14:01:02.154Z,6.45
2017-11-10T14:02:07.665Z,5.90
2017-11-10T14:03:13.560Z,6.05
2017-11-10T14:04:19.076Z,5.57
2017-11-10T14:05:24.648Z,6.40
2017-11-10T14:06:30.172Z,6.10
2017-11-10T14:07:35.788Z,5.57
2017-11-10T14:08:41.357Z,5.95
2017-11-10T14:09:47.033Z,5.93
2017-11-10T14:10:52.522Z,6.00
2017-11-10T14:11:58.724Z,6.20
2017-11-10T14:13:04.248Z,6.00
2017-11-10T14:14:09.823Z,6.62
2017-11-10T14:15:15.316Z,6.33
2017-11-10T14:16:20.814Z,6.50
2017-11-10T14:17:26.446Z,6.32
2017-11-10T14:18:31.962Z,7.12
2017-11-10T14:19:37.537Z,6.57
2017-11-10T14:20:43.099Z,6.47
2017-11-10T14:21:48.593Z,6.30
2017-11-10T14:22:54.122Z,6.25
2017-11-10T14:23:59.648Z,6.00
2017-11-10T14:25:05.263Z,6.60